createdAt,value
2018-09-18T00:00:02.559Z,14.55
2018-09-18T00:02:31.939Z,14.56
2018-09-18T00:05:03.553Z,14.48
2018-09-18T00:07:39.439Z,14.44
2018-09-18T00:10:09.779Z,14.44
2018-09-18T00:12:41.800Z,14.49
2018-09-18T00:15:13.579Z,14.46
2018-09-18T00:17:45.379Z,14.51
2018-09-18T00:47:53.499Z,14.01
2018-09-18T00:50:23.979Z,13.94
2018-09-18T00:52:54.619Z,13.96
2018-09-18T00:55:24.439Z,13.91
2018-09-18T00:57:54.958Z,13.97
2018-09-18T01:00:25.921Z,14.05
2018-09-18T01:02:55.918Z,13.83
2018-09-18T01:05:25.798Z,13.89
2018-09-18T01:08:00.042Z,14.01
2018-09-18T01:22:36.378Z,13.89
2018-09-18T01:25:06.798Z,13.95
2018-09-18T01:27:36.638Z,13.96
2018-09-18T01:30:07.258Z,13.89
2018-09-18T01:32:37.040Z,13.77
2018-09-18T01:35:06.827Z,13.64
2018-09-18T01:37:36.299Z,13.84
2018-09-18T01:40:06.699Z,13.93
2018-09-18T01:42:36.218Z,13.95
2018-09-18T01:45:05.978Z,13.87
2018-09-18T01:47:35.978Z,13.82
2018-09-18T01:50:07.278Z,13.87
2018-09-18T01:52:39.458Z,13.80
2018-09-18T01:55:10.058Z,13.77
2018-09-18T02:00:43.186Z,13.58
2018-09-18T02:03:14.178Z,13.32
2018-09-18T02:05:43.718Z,13.35
2018-09-18T02:08:14.427Z,13.37
2018-09-18T02:10:43.878Z,13.38
2018-09-18T02:13:13.479Z,13.43
2018-09-18T02:15:43.261Z,13.38
2018-09-18T02:18:13.166Z,13.38
2018-09-18T02:20:43.718Z,13.34
2018-09-18T02:23:13.159Z,13.57
2018-09-18T02:25:42.918Z,13.72
2018-09-18T02:28:12.359Z,13.64
2018-09-18T02:30:41.806Z,13.59
2018-09-18T02:33:11.399Z,13.48
2018-09-18T02:35:41.004Z,13.35
2018-09-18T02:38:10.447Z,13.47
2018-09-18T02:40:40.200Z,13.51
2018-09-18T02:43:09.638Z,13.48
2018-09-18T02:45:39.318Z,13.44
2018-09-18T02:48:08.837Z,13.50
2018-09-18T02:50:38.439Z,13.48
2018-09-18T02:53:07.878Z,13.46
2018-09-18T02:55:37.478Z,13.31
2018-09-18T02:58:06.946Z,13.13
2018-09-18T03:00:36.658Z,12.97
2018-09-18T03:03:06.080Z,12.81
2018-09-18T03:05:35.639Z,12.81
2018-09-18T03:08:05.403Z,12.99
2018-09-18T03:10:35.138Z,12.96
2018-09-18T03:13:04.559Z,13.04
2018-09-18T03:15:34.018Z,12.88
2018-09-18T03:18:03.599Z,13.13
2018-09-18T03:20:33.218Z,13.06
2018-09-18T03:23:02.766Z,13.04
2018-09-18T03:25:32.638Z,12.81
2018-09-18T03:28:04.103Z,12.71
2018-09-18T03:30:34.138Z,12.82
2018-09-18T03:33:04.176Z,12.73
2018-09-18T03:35:33.817Z,12.76
2018-09-18T03:38:03.240Z,12.75
2018-09-18T03:40:32.863Z,12.88
2018-09-18T03:43:02.444Z,12.93
2018-09-18T03:45:32.259Z,12.84
2018-09-18T03:48:01.790Z,12.90
2018-09-18T03:50:31.545Z,12.78
2018-09-18T03:53:00.977Z,12.72
2018-09-18T03:55:30.746Z,12.63
2018-09-18T03:58:00.355Z,12.52
2018-09-18T04:00:30.032Z,12.47
2018-09-18T04:02:59.422Z,12.62
2018-09-18T04:05:28.824Z,12.62
2018-09-18T04:07:58.395Z,12.64
2018-09-18T04:10:28.037Z,12.55
2018-09-18T04:12:57.637Z,12.58
2018-09-18T04:15:27.379Z,12.70
2018-09-18T04:17:57.716Z,12.69
2018-09-18T04:20:27.388Z,12.48
2018-09-18T04:22:56.921Z,12.52
2018-09-18T04:25:26.665Z,12.41
2018-09-18T04:27:56.356Z,12.40
2018-09-18T04:30:25.840Z,12.28
2018-09-18T04:32:55.224Z,12.40
2018-09-18T04:35:24.753Z,12.38
2018-09-18T04:37:54.108Z,12.53
2018-09-18T04:40:23.860Z,12.47
2018-09-18T04:42:53.358Z,12.46
2018-09-18T04:45:23.067Z,12.54
2018-09-18T04:47:52.511Z,12.44
2018-09-18T04:50:22.273Z,12.46
2018-09-18T04:52:51.915Z,12.51
2018-09-18T04:55:21.687Z,12.42
2018-09-18T04:57:52.441Z,12.53
2018-09-18T05:00:21.974Z,12.53
2018-09-18T05:02:51.375Z,12.61
2018-09-18T05:05:21.179Z,12.63
2018-09-18T05:07:50.485Z,12.59
2018-09-18T05:10:20.083Z,12.67
2018-09-18T05:12:50.102Z,12.65
2018-09-18T05:15:20.608Z,12.79
2018-09-18T05:17:50.296Z,13.01
2018-09-18T05:20:20.027Z,13.07
2018-09-18T05:22:49.682Z,12.99
2018-09-18T05:25:19.565Z,13.12
2018-09-18T05:27:49.170Z,13.13
2018-09-18T05:30:19.074Z,13.29
2018-09-18T05:32:48.689Z,13.37
2018-09-18T05:35:18.504Z,13.37
2018-09-18T05:37:47.936Z,13.56
2018-09-18T05:40:17.692Z,13.69
2018-09-18T05:42:47.313Z,13.83
2018-09-18T05:45:17.163Z,13.96
2018-09-18T05:47:46.753Z,14.07
2018-09-18T05:50:16.257Z,14.27
2018-09-18T05:52:45.943Z,14.38
2018-09-18T05:55:15.703Z,14.43
2018-09-18T05:57:45.328Z,14.61
2018-09-18T06:00:14.902Z,14.82
2018-09-18T06:02:44.403Z,14.96
2018-09-18T06:05:14.116Z,15.16
2018-09-18T06:07:43.876Z,15.19
2018-09-18T06:10:13.646Z,15.30
2018-09-18T06:12:43.061Z,15.50
2018-09-18T06:15:13.160Z,15.72
2018-09-18T06:17:42.834Z,15.76
2018-09-18T06:20:12.516Z,15.86
2018-09-18T06:22:42.095Z,16.05
2018-09-18T06:25:11.896Z,16.11
2018-09-18T06:27:41.618Z,16.20
2018-09-18T06:30:11.481Z,16.38
2018-09-18T06:32:40.903Z,16.49
2018-09-18T06:35:10.613Z,16.67
2018-09-18T06:37:40.254Z,16.82
2018-09-18T06:40:09.941Z,16.94
2018-09-18T06:42:40.588Z,17.04
2018-09-18T06:45:10.608Z,17.17
2018-09-18T06:47:40.424Z,17.32
2018-09-18T06:50:10.083Z,17.43
2018-09-18T06:52:39.888Z,17.52
2018-09-18T06:55:09.637Z,17.59
2018-09-18T06:57:39.399Z,17.62
2018-09-18T07:00:09.425Z,17.77
2018-09-18T07:02:39.240Z,17.77
2018-09-18T07:05:09.147Z,17.95
2018-09-18T07:07:38.770Z,18.12
2018-09-18T07:10:08.998Z,18.22
2018-09-18T07:12:38.540Z,18.31
2018-09-18T07:15:08.259Z,18.31
2018-09-18T07:17:37.794Z,18.43
2018-09-18T07:20:07.635Z,18.62
2018-09-18T07:22:37.216Z,18.64
2018-09-18T07:25:06.845Z,18.83
2018-09-18T07:27:36.892Z,18.86
2018-09-18T07:30:08.052Z,18.95
2018-09-18T07:32:37.620Z,19.07
2018-09-18T07:35:08.019Z,19.37
2018-09-18T07:37:37.633Z,19.44
2018-09-18T07:40:07.516Z,19.50
2018-09-18T07:42:37.097Z,19.67
2018-09-18T07:45:06.863Z,19.90
2018-09-18T07:47:36.500Z,19.95
2018-09-18T07:50:06.208Z,20.29
2018-09-18T07:52:35.711Z,21.14
2018-09-18T07:55:05.516Z,21.55
2018-09-18T07:57:35.067Z,21.36
2018-09-18T08:00:05.642Z,21.44
2018-09-18T08:02:35.375Z,21.95
2018-09-18T08:05:06.662Z,22.15
2018-09-18T08:07:36.181Z,22.26
2018-09-18T08:10:05.967Z,22.78
2018-09-18T08:12:35.686Z,23.32
2018-09-18T08:15:05.312Z,23.35
2018-09-18T08:17:34.921Z,23.03
2018-09-18T08:20:04.664Z,22.98
2018-09-18T08:22:34.439Z,22.93
2018-09-18T08:25:04.057Z,23.22
2018-09-18T08:27:33.634Z,23.49
2018-09-18T08:30:03.322Z,23.39
2018-09-18T08:32:33.003Z,23.25
2018-09-18T08:35:02.788Z,23.51
2018-09-18T08:37:32.676Z,23.54
2018-09-18T08:40:02.469Z,23.77
2018-09-18T08:42:32.618Z,23.88
2018-09-18T08:45:02.331Z,24.35
2018-09-18T08:47:32.033Z,23.99
2018-09-18T08:50:01.617Z,24.15
2018-09-18T08:52:31.354Z,24.31
2018-09-18T08:55:00.918Z,24.55
2018-09-18T08:57:30.708Z,24.71
2018-09-18T09:00:00.507Z,24.80
2018-09-18T09:02:30.351Z,24.80
2018-09-18T09:04:59.983Z,25.30
2018-09-18T09:07:30.469Z,25.39
2018-09-18T09:10:00.239Z,25.39
2018-09-18T09:12:30.043Z,25.32
2018-09-18T09:14:59.777Z,24.90
2018-09-18T09:17:30.432Z,25.04
2018-09-18T09:20:00.196Z,24.66
2018-09-18T09:22:30.043Z,24.79
2018-09-18T09:24:59.714Z,24.46
2018-09-18T09:27:29.398Z,24.07
2018-09-18T09:29:58.822Z,24.97
2018-09-18T09:32:28.717Z,25.31
2018-09-18T09:34:58.472Z,25.49
2018-09-18T09:37:28.225Z,25.80
2018-09-18T09:39:57.657Z,26.08
2018-09-18T09:42:27.470Z,26.00
2018-09-18T09:44:57.154Z,26.03
2018-09-18T09:47:26.668Z,25.91
2018-09-18T09:49:56.361Z,25.94
2018-09-18T09:52:26.095Z,25.43
2018-09-18T09:54:55.550Z,25.74
2018-09-18T09:57:25.645Z,25.64
2018-09-18T09:59:55.085Z,25.54
2018-09-18T10:02:31.001Z,25.66
2018-09-18T10:05:00.586Z,25.84
2018-09-18T10:07:30.346Z,26.07
2018-09-18T10:09:59.845Z,26.22
2018-09-18T10:12:29.314Z,26.08
2018-09-18T10:14:59.088Z,25.82
2018-09-18T10:17:28.902Z,25.73
2018-09-18T10:19:58.415Z,25.70
2018-09-18T10:22:27.828Z,25.90
2018-09-18T10:24:57.465Z,26.05
2018-09-18T10:27:27.821Z,26.35
2018-09-18T10:29:57.316Z,26.38
2018-09-18T10:32:26.934Z,26.43
2018-09-18T10:34:56.526Z,26.44
2018-09-18T10:37:26.264Z,26.42
2018-09-18T10:39:56.148Z,26.39
2018-09-18T10:42:25.852Z,26.49
2018-09-18T10:44:55.550Z,27.08
2018-09-18T10:47:25.326Z,27.20
2018-09-18T10:49:54.759Z,27.13
2018-09-18T10:52:24.402Z,27.09
2018-09-18T10:54:54.014Z,27.20
2018-09-18T10:57:23.694Z,26.92
2018-09-18T10:59:53.488Z,27.09
2018-09-18T11:02:23.134Z,26.92
2018-09-18T11:04:52.683Z,27.05
2018-09-18T11:07:22.457Z,26.99
2018-09-18T11:09:52.293Z,27.22
2018-09-18T11:12:22.001Z,27.13
2018-09-18T11:14:51.496Z,26.99
2018-09-18T11:17:21.280Z,27.31
2018-09-18T11:19:50.752Z,27.37
2018-09-18T11:22:20.983Z,27.71
2018-09-18T11:24:50.678Z,28.12
2018-09-18T11:27:20.246Z,27.98
2018-09-18T11:29:49.985Z,27.64
2018-09-18T11:32:19.742Z,27.62
2018-09-18T11:34:49.551Z,27.90
2018-09-18T11:37:19.232Z,27.88
2018-09-18T11:39:48.748Z,27.72
2018-09-18T11:42:19.064Z,28.35
2018-09-18T11:44:48.844Z,28.26
2018-09-18T11:47:18.603Z,27.88
2018-09-18T11:49:48.026Z,27.96
2018-09-18T11:52:17.838Z,27.95
2018-09-18T11:54:48.361Z,28.28
2018-09-18T11:57:17.979Z,28.11
2018-09-18T11:59:47.534Z,28.07
2018-09-18T12:02:17.632Z,27.77
2018-09-18T12:04:47.249Z,27.64
2018-09-18T12:07:16.983Z,27.83
2018-09-18T12:09:46.598Z,28.04
2018-09-18T12:12:16.281Z,28.43
2018-09-18T12:14:45.787Z,28.78
2018-09-18T12:17:15.386Z,29.20
2018-09-18T12:19:45.147Z,29.20
2018-09-18T12:22:14.931Z,28.93
2018-09-18T12:24:44.623Z,28.83
2018-09-18T12:27:14.499Z,28.76
2018-09-18T12:29:44.186Z,28.97
2018-09-18T12:32:13.701Z,29.10
2018-09-18T12:34:43.398Z,29.56
2018-09-18T12:37:13.490Z,29.81
2018-09-18T12:39:42.919Z,29.78
2018-09-18T12:42:12.733Z,29.94
2018-09-18T12:44:42.477Z,29.58
2018-09-18T12:47:12.203Z,29.37
2018-09-18T12:49:41.962Z,28.86
2018-09-18T12:52:11.555Z,29.05
2018-09-18T12:54:41.121Z,28.91
2018-09-18T12:57:10.806Z,28.52
2018-09-18T12:59:40.449Z,28.38
2018-09-18T13:02:10.502Z,28.34
2018-09-18T13:04:40.368Z,28.63
2018-09-18T13:07:09.952Z,28.56
2018-09-18T13:09:39.734Z,28.98
2018-09-18T13:12:09.374Z,28.93
2018-09-18T13:14:39.217Z,28.52
2018-09-18T13:17:09.009Z,28.29
2018-09-18T13:19:38.630Z,28.51
2018-09-18T13:22:08.861Z,28.71
2018-09-18T13:24:38.596Z,28.61
2018-09-18T13:27:08.202Z,28.50
2018-09-18T13:29:37.787Z,29.02
2018-09-18T13:32:07.601Z,28.80
2018-09-18T13:34:37.476Z,28.44
2018-09-18T13:37:08.204Z,29.35
2018-09-18T13:39:37.785Z,29.88
2018-09-18T13:42:07.401Z,29.52
2018-09-18T13:44:37.037Z,29.14
2018-09-18T13:47:06.704Z,29.10
2018-09-18T13:49:36.257Z,29.07
2018-09-18T13:52:05.959Z,28.99
2018-09-18T13:54:35.821Z,28.68
2018-09-18T13:57:05.574Z,28.93
2018-09-18T13:59:35.235Z,29.64
2018-09-18T14:02:05.000Z,29.92
2018-09-18T14:04:34.731Z,30.06
2018-09-18T14:07:06.141Z,29.66
2018-09-18T14:09:35.777Z,30.05
2018-09-18T14:12:06.904Z,29.77
2018-09-18T14:14:36.747Z,30.37
2018-09-18T14:17:07.239Z,30.18
2018-09-18T14:19:36.842Z,30.52
2018-09-18T14:22:25.146Z,30.49
2018-09-18T14:25:00.665Z,30.09
2018-09-18T14:27:30.764Z,30.39
2018-09-18T14:45:25.817Z,29.32
2018-09-18T14:47:55.702Z,29.37
2018-09-18T14:50:25.403Z,29.02
2018-09-18T14:52:54.902Z,28.91
2018-09-18T14:55:24.361Z,28.68
2018-09-18T14:57:54.041Z,28.57
2018-09-18T15:00:23.544Z,28.72
2018-09-18T15:02:53.741Z,28.71
2018-09-18T15:05:24.022Z,28.90
2018-09-18T15:07:53.641Z,29.26
2018-09-18T15:10:23.081Z,29.34
2018-09-18T15:12:54.382Z,29.25
2018-09-18T15:15:23.957Z,29.04
2018-09-18T15:17:53.624Z,29.04
2018-09-18T15:20:23.824Z,28.97
2018-09-18T15:22:53.942Z,28.95
2018-09-18T15:25:23.931Z,29.08
2018-09-18T15:27:58.865Z,29.17
2018-09-18T15:30:29.481Z,29.06
2018-09-18T15:32:59.241Z,29.26
2018-09-18T15:48:19.804Z,29.00
2018-09-18T15:50:49.747Z,28.53
2018-09-18T15:53:21.528Z,28.59
2018-09-18T15:55:52.256Z,28.49
2018-09-18T16:04:18.036Z,28.50
2018-09-18T16:06:57.514Z,28.35
2018-09-18T16:33:35.668Z,22.23
2018-09-18T16:36:09.868Z,21.90
2018-09-18T16:38:40.684Z,21.71
2018-09-18T16:41:15.498Z,21.55
2018-09-18T16:43:45.537Z,21.39
2018-09-18T16:46:15.463Z,21.27
2018-09-18T16:48:45.407Z,21.12
2018-09-18T16:51:15.341Z,21.06
2018-09-18T16:53:45.492Z,20.84
2018-09-18T16:56:19.969Z,20.66
2018-09-18T16:58:51.163Z,20.55
2018-09-18T17:01:21.120Z,20.30
2018-09-18T17:03:52.215Z,20.26
2018-09-18T17:06:23.563Z,19.95
2018-09-18T17:08:59.113Z,19.90
2018-09-18T17:11:33.714Z,19.69
2018-09-18T17:14:04.981Z,19.51
2018-09-18T17:16:36.007Z,19.40
2018-09-18T17:19:07.755Z,19.28
2018-09-18T17:21:38.694Z,19.28
2018-09-18T17:24:08.614Z,19.21
2018-09-18T17:26:40.329Z,19.05
2018-09-18T17:32:36.036Z,18.78
2018-09-18T17:38:14.530Z,18.69
2018-09-18T17:41:03.217Z,18.58
2018-09-18T17:46:44.002Z,18.21
2018-09-18T17:49:15.304Z,18.07
2018-09-18T17:54:37.470Z,18.07
2018-09-18T17:57:20.157Z,18.04
2018-09-18T17:59:50.314Z,18.00
2018-09-18T18:02:21.112Z,17.79
2018-09-18T18:04:52.029Z,17.79
2018-09-18T18:07:21.853Z,17.73
2018-09-18T18:09:52.253Z,17.69
2018-09-18T18:12:27.781Z,17.62
2018-09-18T18:14:58.003Z,17.59
2018-09-18T18:17:30.229Z,17.53
2018-09-18T18:20:02.061Z,17.49
2018-09-18T18:22:40.171Z,17.30
2018-09-18T18:25:15.351Z,17.20
2018-09-18T18:27:47.614Z,17.15
2018-09-18T18:30:19.696Z,17.36
2018-09-18T18:32:51.511Z,17.27
2018-09-18T18:35:21.597Z,17.18
2018-09-18T18:37:53.653Z,17.02
2018-09-18T18:40:26.193Z,16.99
2018-09-18T18:42:56.333Z,16.98
2018-09-18T18:45:30.632Z,17.03
2018-09-18T18:51:32.954Z,16.94
2018-09-18T18:54:04.675Z,16.99
2018-09-18T18:56:45.784Z,16.91
2018-09-18T19:05:27.639Z,16.75
2018-09-18T19:07:58.283Z,16.50
2018-09-18T19:10:29.081Z,16.48
2018-09-18T19:13:06.498Z,16.45
2018-09-18T19:15:40.073Z,16.34
2018-09-18T19:18:17.302Z,16.30
2018-09-18T19:20:50.134Z,16.31
2018-09-18T19:23:21.086Z,16.25
2018-09-18T19:29:21.267Z,16.02
2018-09-18T19:31:51.869Z,16.08
2018-09-18T19:34:21.933Z,16.02
2018-09-18T19:36:53.364Z,15.90
2018-09-18T19:39:28.777Z,16.10
2018-09-18T19:41:59.433Z,16.07
2018-09-18T19:44:35.215Z,15.91
2018-09-18T19:47:06.158Z,15.92
2018-09-18T19:49:43.928Z,15.86
2018-09-18T19:52:15.650Z,15.75
2018-09-18T19:54:46.386Z,15.68
2018-09-18T19:57:18.091Z,15.78
2018-09-18T19:59:56.777Z,15.60
2018-09-18T20:02:27.569Z,15.48
2018-09-18T20:04:58.458Z,15.55
2018-09-18T20:07:30.860Z,15.49
2018-09-18T20:22:17.456Z,15.44
2018-09-18T21:20:02.912Z,14.97
2018-09-18T21:31:58.991Z,15.09
2018-09-18T21:34:32.497Z,15.01
2018-09-18T21:37:02.673Z,14.82
2018-09-18T21:39:33.850Z,14.69
2018-09-18T21:42:13.031Z,14.83
2018-09-18T21:44:48.363Z,14.83
2018-09-18T21:47:18.898Z,14.85
2018-09-18T21:49:50.931Z,14.83
2018-09-18T21:52:21.986Z,14.80
2018-09-18T21:54:53.784Z,14.64
2018-09-18T22:00:43.433Z,14.64
2018-09-18T22:03:13.515Z,14.49
2018-09-18T22:05:44.683Z,14.47
2018-09-18T22:18:40.533Z,14.44
2018-09-18T22:21:10.900Z,14.47
2018-09-18T22:23:40.983Z,14.38
2018-09-18T22:26:11.218Z,14.36
2018-09-18T22:28:41.152Z,14.32
2018-09-18T22:31:11.068Z,14.28
2018-09-18T22:33:41.365Z,14.24
2018-09-18T22:36:11.534Z,14.16
2018-09-18T22:38:41.401Z,14.09
2018-09-18T22:41:11.253Z,14.09
2018-09-18T22:43:42.575Z,14.19
2018-09-18T22:46:12.792Z,14.06
2018-09-18T22:48:43.418Z,13.95
2018-09-18T22:51:17.953Z,14.02
2018-09-18T22:53:48.026Z,14.13
2018-09-18T22:56:17.835Z,14.06
2018-09-18T22:58:47.844Z,13.89
2018-09-18T23:01:17.723Z,14.00
2018-09-18T23:03:47.509Z,14.04
2018-09-18T23:06:18.447Z,13.95
2018-09-18T23:08:48.688Z,13.88
2018-09-18T23:11:19.478Z,13.89
2018-09-18T23:13:49.634Z,13.97
2018-09-18T23:16:19.768Z,13.88
2018-09-18T23:19:10.968Z,13.81
2018-09-18T23:21:45.166Z,13.95
